Time;durP1;ratioP1;P1;durP2;ratioP2;P2;SDS_P1;SDS_P2;PMS_P1;PMS_P2;Temp;Humidity;BMP_temperature;BMP_pressure;BME280_temperature;BME280_humidity;BME280_pressure;Samples;Min_cycle;Max_cycle;Signal;HPM_P1;HPM_P2
2021/10/31 00:01:54;;;;;;;27.30;20.60;;;;;;;;;;5013334;28;20399;-66
2021/10/31 00:04:20;;;;;;;28.30;22.47;;;;;;;;;;5013786;28;20408;-66
2021/10/31 00:06:46;;;;;;;32.40;25.10;;;;;;;;;;5013711;28;20408;-66
2021/10/31 00:09:12;;;;;;;32.47;25.60;;;;;;;;;;5013939;28;20749;-66
2021/10/31 00:11:39;;;;;;;27.03;22.67;;;;;;;;;;5013936;28;20780;-66
2021/10/31 00:14:05;;;;;;;30.30;23.60;;;;;;;;;;5014251;28;20428;-66
2021/10/31 00:16:32;;;;;;;30.00;24.13;;;;;;;;;;5013375;28;20835;-66
2021/10/31 00:18:58;;;;;;;27.10;22.10;;;;;;;;;;5005909;28;20509;-66
2021/10/31 00:21:25;;;;;;;29.07;24.03;;;;;;;;;;4994078;28;20426;-67
2021/10/31 00:23:52;;;;;;;28.13;23.57;;;;;;;;;;4993838;28;20503;-67
2021/10/31 00:26:18;;;;;;;31.63;24.73;;;;;;;;;;4994109;28;20408;-67
2021/10/31 00:28:44;;;;;;;26.43;21.30;;;;;;;;;;4993784;28;20535;-67
2021/10/31 00:31:11;;;;;;;30.20;22.67;;;;;;;;;;4994116;28;20825;-66
2021/10/31 00:33:37;;;;;;;27.33;22.47;;;;;;;;;;4993650;28;20409;-67
2021/10/31 00:36:04;;;;;;;28.87;22.30;;;;;;;;;;4992043;28;20459;-67
2021/10/31 00:38:30;;;;;;;29.60;21.53;;;;;;;;;;4993477;28;20464;-67
2021/10/31 00:40:56;;;;;;;25.83;20.20;;;;;;;;;;4993515;28;20405;-67
2021/10/31 00:43:22;;;;;;;22.50;19.30;;;;;;;;;;4993409;28;20537;-67
2021/10/31 00:45:49;;;;;;;33.87;23.00;;;;;;;;;;4993772;28;20769;-66
2021/10/31 00:48:15;;;;;;;26.00;21.47;;;;;;;;;;4993658;28;20436;-66
2021/10/31 00:50:42;;;;;;;28.93;20.93;;;;;;;;;;4993445;28;20431;-67
2021/10/31 00:53:09;;;;;;;23.03;19.50;;;;;;;;;;4993844;28;20418;-66
2021/10/31 00:55:35;;;;;;;26.93;23.20;;;;;;;;;;4993504;28;20468;-67
2021/10/31 00:58:01;;;;;;;27.07;21.43;;;;;;;;;;4993372;28;20420;-67
2021/10/31 01:00:28;;;;;;;26.47;21.20;;;;;;;;;;4993286;28;20407;-67
2021/10/31 01:02:55;;;;;;;31.27;22.67;;;;;;;;;;4993151;28;20396;-67
2021/10/31 01:05:24;;;;;;;28.50;21.27;;;;;;;;;;4993456;28;20495;-67
2021/10/31 01:08:11;;;;;;;28.77;22.13;;;;;;;;;;4993054;28;20439;-67
2021/10/31 01:10:49;;;;;;;29.10;22.33;;;;;;;;;;4992304;28;20403;-67
2021/10/31 01:13:21;;;;;;;31.30;22.87;;;;;;;;;;4991536;28;20401;-67
2021/10/31 01:15:56;;;;;;;26.60;19.57;;;;;;;;;;4993029;28;20456;-66
2021/10/31 01:18:22;;;;;;;27.20;21.47;;;;;;;;;;4992398;28;20904;-67
2021/10/31 01:20:51;;;;;;;28.07;21.03;;;;;;;;;;4992945;28;20503;-67
2021/10/31 01:23:29;;;;;;;27.50;20.50;;;;;;;;;;4992904;28;20495;-67
2021/10/31 01:25:55;;;;;;;29.60;22.00;;;;;;;;;;4992860;28;20412;-67
2021/10/31 01:28:21;;;;;;;27.53;20.27;;;;;;;;;;4993303;28;20451;-67
2021/10/31 01:31:07;;;;;;;25.47;19.20;;;;;;;;;;4993054;28;20417;-67
2021/10/31 01:33:37;;;;;;;21.50;17.80;;;;;;;;;;4993025;28;20416;-67
2021/10/31 01:36:22;;;;;;;27.40;18.50;;;;;;;;;;4993125;28;20455;-67
2021/10/31 01:38:58;;;;;;;22.30;18.03;;;;;;;;;;4993287;28;20780;-67
2021/10/31 01:41:38;;;;;;;26.47;19.20;;;;;;;;;;4992952;28;20392;-67
2021/10/31 01:44:07;;;;;;;31.57;22.47;;;;;;;;;;4992935;28;20377;-67
2021/10/31 01:46:36;;;;;;;23.37;17.00;;;;;;;;;;4992847;28;20545;-67
2021/10/31 01:49:11;;;;;;;18.13;15.37;;;;;;;;;;4992597;28;20488;-67
2021/10/31 01:51:39;;;;;;;17.03;13.47;;;;;;;;;;4993145;28;20403;-67
2021/10/31 01:54:09;;;;;;;22.90;14.43;;;;;;;;;;4992605;28;20409;-67
2021/10/31 01:56:36;;;;;;;18.83;14.17;;;;;;;;;;4992794;28;21003;-67
2021/10/31 01:59:08;;;;;;;20.17;14.50;;;;;;;;;;4991650;28;20454;-67
2021/10/31 02:01:36;;;;;;;16.50;13.20;;;;;;;;;;4992576;28;20397;-67
2021/10/31 02:04:10;;;;;;;14.20;12.63;;;;;;;;;;4992768;28;20419;-67
2021/10/31 02:06:38;;;;;;;17.40;13.63;;;;;;;;;;4993060;28;20508;-65
2021/10/31 02:09:05;;;;;;;20.23;13.37;;;;;;;;;;4992891;28;20435;-67
2021/10/31 02:11:33;;;;;;;20.40;15.00;;;;;;;;;;4992296;28;20408;-67
2021/10/31 02:14:00;;;;;;;21.37;15.23;;;;;;;;;;4992701;28;20527;-67
2021/10/31 02:16:27;;;;;;;20.57;16.10;;;;;;;;;;4992212;28;20944;-67
2021/10/31 02:18:56;;;;;;;18.87;14.93;;;;;;;;;;4992069;28;20429;-67
2021/10/31 02:21:25;;;;;;;15.40;13.10;;;;;;;;;;4991249;28;20412;-67
2021/10/31 02:23:51;;;;;;;20.23;15.43;;;;;;;;;;4991002;28;20491;-67
2021/10/31 02:26:17;;;;;;;24.87;16.43;;;;;;;;;;4991203;28;20428;-66
2021/10/31 02:28:54;;;;;;;15.33;13.53;;;;;;;;;;4991117;28;20450;-67
2021/10/31 02:31:20;;;;;;;14.37;12.07;;;;;;;;;;4994339;28;20416;-67
2021/10/31 02:33:46;;;;;;;15.70;12.33;;;;;;;;;;4994229;28;20470;-67
2021/10/31 02:36:12;;;;;;;15.00;11.13;;;;;;;;;;4994046;28;20872;-66
2021/10/31 02:38:38;;;;;;;13.60;10.63;;;;;;;;;;4993838;28;20457;-66
2021/10/31 02:41:04;;;;;;;15.20;12.20;;;;;;;;;;4994084;28;20484;-66
2021/10/31 02:43:30;;;;;;;15.27;11.63;;;;;;;;;;4996198;28;20432;-67
2021/10/31 02:45:56;;;;;;;15.67;10.83;;;;;;;;;;4995459;28;20405;-67
2021/10/31 02:48:23;;;;;;;15.40;11.23;;;;;;;;;;4995428;28;20822;-67
2021/10/31 02:50:50;;;;;;;15.17;11.83;;;;;;;;;;4995334;28;20412;-67
2021/10/31 02:53:18;;;;;;;16.57;13.53;;;;;;;;;;4994707;28;20408;-67
2021/10/31 02:55:44;;;;;;;14.27;10.80;;;;;;;;;;4997198;28;20451;-67
2021/10/31 02:58:13;;;;;;;11.40;9.10;;;;;;;;;;4995285;28;20757;-67
2021/10/31 03:00:40;;;;;;;9.37;7.90;;;;;;;;;;4995438;28;20401;-67
2021/10/31 03:03:06;;;;;;;11.00;7.70;;;;;;;;;;4995322;28;20461;-67
2021/10/31 03:05:33;;;;;;;10.70;8.70;;;;;;;;;;4995594;28;20412;-67
2021/10/31 03:07:59;;;;;;;11.10;9.03;;;;;;;;;;4995144;28;20429;-67
2021/10/31 03:10:25;;;;;;;14.33;10.17;;;;;;;;;;4995238;28;20779;-67
2021/10/31 03:12:51;;;;;;;10.47;8.60;;;;;;;;;;4995188;28;20412;-67
2021/10/31 03:15:17;;;;;;;9.67;8.13;;;;;;;;;;4994951;28;20409;-67
2021/10/31 03:17:43;;;;;;;11.60;8.73;;;;;;;;;;4993572;28;20456;-67
2021/10/31 03:20:09;;;;;;;13.60;8.90;;;;;;;;;;4994702;28;20411;-67
2021/10/31 03:22:36;;;;;;;9.00;7.00;;;;;;;;;;4994996;28;20400;-66
2021/10/31 03:25:02;;;;;;;12.30;8.10;;;;;;;;;;4995270;28;20764;-67
2021/10/31 03:27:28;;;;;;;12.47;8.50;;;;;;;;;;4994115;28;20455;-67
2021/10/31 03:29:54;;;;;;;12.53;8.17;;;;;;;;;;4993526;28;20721;-66
2021/10/31 03:32:20;;;;;;;12.67;7.87;;;;;;;;;;4993615;28;20428;-66
2021/10/31 03:34:47;;;;;;;22.57;13.07;;;;;;;;;;4993258;28;20764;-66
2021/10/31 03:37:13;;;;;;;12.27;9.53;;;;;;;;;;4996126;28;20471;-67
2021/10/31 03:39:39;;;;;;;12.60;9.50;;;;;;;;;;4995408;28;20417;-67
2021/10/31 03:42:06;;;;;;;14.83;10.73;;;;;;;;;;4994358;28;20873;-67
2021/10/31 03:44:36;;;;;;;11.40;9.30;;;;;;;;;;4994988;28;20405;-67
2021/10/31 03:47:03;;;;;;;10.70;8.70;;;;;;;;;;4995125;28;20389;-67
2021/10/31 03:49:29;;;;;;;11.33;8.40;;;;;;;;;;4994475;28;20408;-67
2021/10/31 03:51:55;;;;;;;11.60;8.67;;;;;;;;;;4994539;28;20441;-67
2021/10/31 03:54:21;;;;;;;20.83;12.93;;;;;;;;;;4993535;28;20412;-67
2021/10/31 03:56:47;;;;;;;16.80;10.50;;;;;;;;;;5005383;28;20447;-67
2021/10/31 03:59:13;;;;;;;15.87;9.67;;;;;;;;;;5014547;28;20410;-67
2021/10/31 04:01:39;;;;;;;14.30;9.90;;;;;;;;;;5013906;28;20429;-67
2021/10/31 04:04:05;;;;;;;11.63;9.17;;;;;;;;;;5013974;28;20812;-67
2021/10/31 04:06:31;;;;;;;12.87;8.37;;;;;;;;;;5013801;28;20404;-67
2021/10/31 04:08:57;;;;;;;12.70;9.37;;;;;;;;;;5013650;28;20422;-67
2021/10/31 04:11:23;;;;;;;9.73;8.67;;;;;;;;;;5013745;28;20431;-67
2021/10/31 04:13:49;;;;;;;9.73;8.20;;;;;;;;;;5013830;28;20400;-67
2021/10/31 04:16:15;;;;;;;10.53;7.63;;;;;;;;;;5013714;28;20455;-67
2021/10/31 04:18:41;;;;;;;12.07;7.87;;;;;;;;;;5013622;28;20451;-66
2021/10/31 04:21:07;;;;;;;22.30;11.37;;;;;;;;;;5014105;28;20905;-65
2021/10/31 04:23:33;;;;;;;29.20;13.40;;;;;;;;;;5011683;28;20396;-68
2021/10/31 04:25:59;;;;;;;23.60;10.20;;;;;;;;;;5007436;28;20420;-68
2021/10/31 04:28:25;;;;;;;29.40;14.20;;;;;;;;;;4994917;28;20755;-67
2021/10/31 04:30:52;;;;;;;18.50;9.93;;;;;;;;;;4993034;28;20404;-66
2021/10/31 04:33:18;;;;;;;18.07;9.23;;;;;;;;;;4992434;28;20408;-67
2021/10/31 04:35:44;;;;;;;12.27;8.27;;;;;;;;;;4992074;28;20544;-66
2021/10/31 04:38:22;;;;;;;15.03;9.73;;;;;;;;;;4991860;28;20419;-66
2021/10/31 04:40:48;;;;;;;9.73;7.43;;;;;;;;;;4991878;28;20389;-66
2021/10/31 04:43:15;;;;;;;14.87;10.17;;;;;;;;;;4991753;28;20896;-66
2021/10/31 04:45:42;;;;;;;18.27;9.40;;;;;;;;;;4991880;28;20412;-66
2021/10/31 04:48:08;;;;;;;10.47;7.90;;;;;;;;;;4991921;28;20451;-68
2021/10/31 04:50:34;;;;;;;13.40;9.20;;;;;;;;;;4991741;28;20416;-67
2021/10/31 04:53:01;;;;;;;15.50;8.60;;;;;;;;;;4990755;28;20405;-67
2021/10/31 04:55:27;;;;;;;10.30;7.23;;;;;;;;;;4991873;28;20432;-68
2021/10/31 04:57:53;;;;;;;13.03;7.80;;;;;;;;;;5011337;28;20795;-69
2021/10/31 05:00:19;;;;;;;12.57;7.40;;;;;;;;;;5011090;28;20888;-68
2021/10/31 05:02:45;;;;;;;10.93;8.30;;;;;;;;;;5011177;28;20936;-66
2021/10/31 05:05:11;;;;;;;19.10;11.60;;;;;;;;;;5011140;28;20407;-67
2021/10/31 05:07:37;;;;;;;20.30;11.73;;;;;;;;;;5011012;28;20467;-67
2021/10/31 05:10:04;;;;;;;11.87;7.67;;;;;;;;;;5011250;28;20408;-67
2021/10/31 05:12:30;;;;;;;10.07;7.47;;;;;;;;;;4997712;28;20766;-68
2021/10/31 05:14:56;;;;;;;10.93;6.33;;;;;;;;;;4991577;28;20416;-68
2021/10/31 05:17:22;;;;;;;7.63;6.00;;;;;;;;;;4991157;28;20463;-67
2021/10/31 05:19:48;;;;;;;15.47;7.33;;;;;;;;;;5003325;28;20414;-67
2021/10/31 05:22:14;;;;;;;8.43;6.83;;;;;;;;;;5010973;28;20422;-67
2021/10/31 05:24:40;;;;;;;8.23;6.50;;;;;;;;;;5010662;28;20406;-67
2021/10/31 05:27:06;;;;;;;7.63;6.60;;;;;;;;;;5018198;22;20447;-79
2021/10/31 05:29:32;;;;;;;8.60;6.80;;;;;;;;;;5043460;28;20475;-81
2021/10/31 05:31:58;;;;;;;8.90;6.50;;;;;;;;;;5052061;28;20418;-81
2021/10/31 05:34:24;;;;;;;8.47;6.50;;;;;;;;;;5027102;28;20888;-81
2021/10/31 05:36:50;;;;;;;9.60;7.00;;;;;;;;;;5017081;28;21006;-81
2021/10/31 05:39:16;;;;;;;9.93;6.40;;;;;;;;;;5017820;28;20404;-81
2021/10/31 05:41:43;;;;;;;9.83;6.20;;;;;;;;;;5033334;23;20863;-66
2021/10/31 05:44:09;;;;;;;6.80;5.40;;;;;;;;;;5029646;28;20435;-67
2021/10/31 05:46:35;;;;;;;8.13;6.17;;;;;;;;;;5033997;28;20421;-66
2021/10/31 05:49:01;;;;;;;6.90;4.87;;;;;;;;;;5015578;28;20501;-66
2021/10/31 05:51:30;;;;;;;6.57;4.70;;;;;;;;;;5015256;28;20407;-67
2021/10/31 05:53:57;;;;;;;7.17;5.90;;;;;;;;;;5043254;23;20478;-64
2021/10/31 05:56:23;;;;;;;6.97;6.27;;;;;;;;;;5032855;28;20961;-64
2021/10/31 05:58:50;;;;;;;6.93;5.93;;;;;;;;;;5033004;28;20406;-64
2021/10/31 06:01:16;;;;;;;6.97;4.80;;;;;;;;;;5032880;28;20493;-64
2021/10/31 06:03:42;;;;;;;7.03;5.30;;;;;;;;;;5033294;28;20435;-64
2021/10/31 06:06:08;;;;;;;6.40;4.67;;;;;;;;;;5036660;28;20411;-64
2021/10/31 06:08:34;;;;;;;5.50;4.60;;;;;;;;;;5036877;28;20403;-64
2021/10/31 06:11:01;;;;;;;5.93;4.60;;;;;;;;;;5036642;28;20426;-64
2021/10/31 06:13:27;;;;;;;5.80;5.20;;;;;;;;;;5036649;28;20422;-64
2021/10/31 06:15:53;;;;;;;7.03;4.70;;;;;;;;;;5036546;28;20446;-64
2021/10/31 06:18:20;;;;;;;9.83;4.77;;;;;;;;;;5037042;28;20945;-64
2021/10/31 06:20:46;;;;;;;5.73;5.00;;;;;;;;;;5036537;28;20399;-64
2021/10/31 06:23:14;;;;;;;6.00;4.20;;;;;;;;;;5036485;28;20399;-64
2021/10/31 06:25:40;;;;;;;7.20;5.33;;;;;;;;;;5036714;28;20414;-64
2021/10/31 06:28:06;;;;;;;7.20;5.70;;;;;;;;;;5036478;28;20406;-64
2021/10/31 06:30:32;;;;;;;6.37;5.00;;;;;;;;;;5036496;28;20421;-64
2021/10/31 06:32:58;;;;;;;6.20;5.60;;;;;;;;;;5027882;28;20419;-64
2021/10/31 06:35:24;;;;;;;6.80;4.83;;;;;;;;;;5016525;28;20419;-64
2021/10/31 06:37:50;;;;;;;6.53;4.83;;;;;;;;;;5016608;28;20406;-64
2021/10/31 06:40:17;;;;;;;6.47;4.67;;;;;;;;;;5016435;28;20399;-64
2021/10/31 06:42:43;;;;;;;6.50;4.93;;;;;;;;;;5016814;28;20403;-64
2021/10/31 06:45:10;;;;;;;6.87;4.83;;;;;;;;;;5016617;28;20846;-65
2021/10/31 06:47:36;;;;;;;6.17;4.60;;;;;;;;;;5016172;28;20415;-65
2021/10/31 06:50:03;;;;;;;7.60;4.73;;;;;;;;;;5016519;28;20407;-65
2021/10/31 06:52:29;;;;;;;6.57;5.40;;;;;;;;;;5016220;28;20416;-65
2021/10/31 06:54:55;;;;;;;7.03;4.70;;;;;;;;;;5015890;28;20465;-64
2021/10/31 06:57:21;;;;;;;5.53;4.70;;;;;;;;;;5015959;28;20447;-64
2021/10/31 06:59:47;;;;;;;8.10;5.50;;;;;;;;;;5016161;28;20762;-64
2021/10/31 07:02:14;;;;;;;7.67;4.63;;;;;;;;;;5016179;28;20736;-64
2021/10/31 07:04:40;;;;;;;6.90;5.50;;;;;;;;;;5016478;28;20919;-64
2021/10/31 07:07:06;;;;;;;6.23;5.30;;;;;;;;;;5016218;28;20481;-64
2021/10/31 07:09:32;;;;;;;6.47;4.70;;;;;;;;;;5015910;28;20867;-64
2021/10/31 07:11:59;;;;;;;5.53;4.17;;;;;;;;;;5015754;28;20438;-64
2021/10/31 07:14:26;;;;;;;6.73;4.50;;;;;;;;;;5015861;28;20478;-64
2021/10/31 07:16:52;;;;;;;6.23;4.43;;;;;;;;;;5015085;28;20513;-64
2021/10/31 07:19:18;;;;;;;6.97;4.87;;;;;;;;;;5016046;28;20918;-64
2021/10/31 07:21:44;;;;;;;7.60;4.43;;;;;;;;;;5015680;28;20880;-64
2021/10/31 07:24:10;;;;;;;6.40;4.30;;;;;;;;;;5015412;28;20422;-64
2021/10/31 07:26:36;;;;;;;6.10;4.43;;;;;;;;;;5015806;28;20432;-64
2021/10/31 07:29:05;;;;;;;5.10;4.60;;;;;;;;;;5015928;28;20420;-64
2021/10/31 07:31:32;;;;;;;6.90;5.27;;;;;;;;;;5015876;28;20415;-64
2021/10/31 07:33:59;;;;;;;6.93;3.70;;;;;;;;;;5015236;28;20435;-64
2021/10/31 07:36:25;;;;;;;6.00;4.97;;;;;;;;;;5015477;28;20880;-65
2021/10/31 07:38:51;;;;;;;4.80;4.00;;;;;;;;;;5014685;28;20422;-64
2021/10/31 07:41:17;;;;;;;5.33;3.90;;;;;;;;;;5015588;28;20396;-63
2021/10/31 07:43:43;;;;;;;7.37;4.67;;;;;;;;;;5015465;28;20445;-63
2021/10/31 07:46:10;;;;;;;6.20;4.77;;;;;;;;;;5015815;28;20411;-63
2021/10/31 07:48:36;;;;;;;6.33;4.20;;;;;;;;;;5015929;28;20873;-63
2021/10/31 07:51:03;;;;;;;5.77;4.47;;;;;;;;;;5016066;28;20399;-63
2021/10/31 07:53:29;;;;;;;8.30;5.17;;;;;;;;;;5014709;28;20399;-65
2021/10/31 07:55:56;;;;;;;6.67;4.50;;;;;;;;;;5029785;28;20819;-65
2021/10/31 07:58:25;;;;;;;6.33;4.77;;;;;;;;;;5018991;28;20435;-64
2021/10/31 08:00:51;;;;;;;5.13;4.40;;;;;;;;;;5014570;28;20419;-63
2021/10/31 08:03:18;;;;;;;5.37;4.43;;;;;;;;;;5014995;28;20911;-65
2021/10/31 08:05:44;;;;;;;7.40;5.07;;;;;;;;;;5028120;28;20904;-65
2021/10/31 08:08:11;;;;;;;6.17;5.00;;;;;;;;;;5033244;28;20406;-65
2021/10/31 08:10:37;;;;;;;5.90;4.67;;;;;;;;;;5034609;28;20406;-63
2021/10/31 08:13:03;;;;;;;5.90;4.53;;;;;;;;;;5033125;28;20410;-64
2021/10/31 08:15:29;;;;;;;5.90;4.90;;;;;;;;;;5034235;28;20505;-63
2021/10/31 08:17:55;;;;;;;9.80;5.30;;;;;;;;;;5021048;28;20414;-63
2021/10/31 08:20:23;;;;;;;5.30;4.63;;;;;;;;;;5017666;28;20436;-64
2021/10/31 08:22:50;;;;;;;7.50;5.03;;;;;;;;;;5032011;28;20418;-62
2021/10/31 08:25:16;;;;;;;5.50;4.53;;;;;;;;;;5032019;28;20445;-62
2021/10/31 08:27:42;;;;;;;6.07;4.77;;;;;;;;;;5034374;28;20739;-63
2021/10/31 08:30:08;;;;;;;5.20;4.30;;;;;;;;;;5033879;28;20547;-63
2021/10/31 08:32:39;;;;;;;4.57;4.10;;;;;;;;;;5033963;28;20414;-63
2021/10/31 08:35:09;;;;;;;6.40;4.60;;;;;;;;;;5033874;28;20584;-63
2021/10/31 08:37:35;;;;;;;5.33;3.57;;;;;;;;;;5033794;28;20458;-63
2021/10/31 08:40:01;;;;;;;6.50;4.20;;;;;;;;;;5033069;28;20929;-63
2021/10/31 08:42:28;;;;;;;4.83;3.63;;;;;;;;;;5033199;28;20513;-63
2021/10/31 08:44:54;;;;;;;4.30;3.00;;;;;;;;;;5032732;28;20545;-62
2021/10/31 08:47:20;;;;;;;3.60;3.03;;;;;;;;;;5033535;28;20940;-62
2021/10/31 08:49:46;;;;;;;3.40;2.80;;;;;;;;;;5032184;28;20911;-63
2021/10/31 08:52:12;;;;;;;3.60;2.90;;;;;;;;;;5033293;28;20501;-62
2021/10/31 08:54:38;;;;;;;3.87;3.07;;;;;;;;;;5018230;28;21095;-65
2021/10/31 08:57:06;;;;;;;4.37;3.43;;;;;;;;;;5026639;28;20438;-63
2021/10/31 08:59:32;;;;;;;4.97;3.60;;;;;;;;;;5033835;28;20437;-63
2021/10/31 09:01:58;;;;;;;4.37;3.10;;;;;;;;;;5033546;28;20402;-63
2021/10/31 09:04:24;;;;;;;4.13;3.20;;;;;;;;;;5033403;28;20422;-63
2021/10/31 09:06:50;;;;;;;3.30;2.80;;;;;;;;;;5033815;28;20398;-63
2021/10/31 09:09:19;;;;;;;4.60;3.40;;;;;;;;;;5033736;28;20459;-63
2021/10/31 09:11:46;;;;;;;5.43;2.90;;;;;;;;;;5033674;28;20426;-63
2021/10/31 09:14:12;;;;;;;3.97;2.83;;;;;;;;;;5033673;28;20427;-63
2021/10/31 09:16:38;;;;;;;4.53;3.30;;;;;;;;;;5033733;28;20997;-63
2021/10/31 09:19:04;;;;;;;3.50;3.13;;;;;;;;;;5033506;28;20444;-63
2021/10/31 09:21:30;;;;;;;3.63;2.90;;;;;;;;;;5033272;28;20768;-63
2021/10/31 09:23:57;;;;;;;3.27;2.50;;;;;;;;;;5033453;28;20426;-63
2021/10/31 09:26:23;;;;;;;4.10;2.97;;;;;;;;;;5033445;28;20766;-63
2021/10/31 09:28:49;;;;;;;4.43;2.63;;;;;;;;;;5033140;28;20411;-64
2021/10/31 09:31:16;;;;;;;5.70;2.80;;;;;;;;;;5033425;28;20421;-63
2021/10/31 09:33:42;;;;;;;3.63;2.60;;;;;;;;;;5018422;28;20888;-63
2021/10/31 09:36:08;;;;;;;3.93;2.50;;;;;;;;;;5013303;28;20481;-63
2021/10/31 09:38:35;;;;;;;4.20;2.63;;;;;;;;;;5013471;28;20395;-63
2021/10/31 09:41:01;;;;;;;4.00;2.47;;;;;;;;;;5013038;28;20395;-64
2021/10/31 09:43:31;;;;;;;3.50;2.33;;;;;;;;;;5013101;28;20458;-63
2021/10/31 09:45:59;;;;;;;2.93;2.17;;;;;;;;;;5013249;28;20949;-63
2021/10/31 09:48:30;;;;;;;7.90;2.43;;;;;;;;;;5013337;28;20417;-63
2021/10/31 09:50:56;;;;;;;3.87;2.03;;;;;;;;;;5013350;28;20398;-63
2021/10/31 09:53:22;;;;;;;3.17;2.20;;;;;;;;;;5012953;28;20399;-64
2021/10/31 09:55:49;;;;;;;6.00;2.10;;;;;;;;;;5012989;28;20475;-63
2021/10/31 09:58:29;;;;;;;5.13;2.13;;;;;;;;;;5013048;28;20558;-63
2021/10/31 10:01:00;;;;;;;3.43;2.33;;;;;;;;;;5013106;28;20479;-63
2021/10/31 10:06:19;;;;;;;4.00;2.30;;;;;;;;;;5013289;28;20388;-63
2021/10/31 10:08:59;;;;;;;3.20;2.20;;;;;;;;;;5013053;28;20474;-63
2021/10/31 10:11:26;;;;;;;4.73;2.73;;;;;;;;;;5012937;28;20403;-64
2021/10/31 10:13:53;;;;;;;3.57;2.20;;;;;;;;;;5013144;28;20436;-64
2021/10/31 10:16:19;;;;;;;3.50;1.90;;;;;;;;;;5013168;28;20455;-63
2021/10/31 10:18:45;;;;;;;3.57;2.47;;;;;;;;;;5012998;28;20391;-64
2021/10/31 10:21:17;;;;;;;3.67;2.50;;;;;;;;;;5012983;28;20542;-63
2021/10/31 10:23:49;;;;;;;3.37;2.30;;;;;;;;;;5012977;28;20420;-64
2021/10/31 10:26:24;;;;;;;4.67;2.40;;;;;;;;;;5012921;28;20411;-63
2021/10/31 10:28:50;;;;;;;4.40;2.43;;;;;;;;;;5012953;28;20522;-63
2021/10/31 10:31:21;;;;;;;3.30;2.50;;;;;;;;;;5018211;28;20419;-63
2021/10/31 10:33:48;;;;;;;2.83;2.33;;;;;;;;;;5017436;28;20442;-64
2021/10/31 10:36:14;;;;;;;4.40;2.20;;;;;;;;;;5013074;28;20806;-64
2021/10/31 10:38:41;;;;;;;2.90;2.00;;;;;;;;;;5013031;28;20407;-64
2021/10/31 10:41:27;;;;;;;3.47;2.40;;;;;;;;;;5012760;28;20423;-64
2021/10/31 10:43:53;;;;;;;3.00;2.13;;;;;;;;;;5012635;28;20450;-64
2021/10/31 10:46:22;;;;;;;3.07;2.00;;;;;;;;;;5012819;28;20843;-64
2021/10/31 10:48:55;;;;;;;2.67;1.90;;;;;;;;;;5012874;28;20462;-64
2021/10/31 10:51:21;;;;;;;2.80;1.90;;;;;;;;;;5013351;28;20414;-64
2021/10/31 10:53:47;;;;;;;2.40;1.70;;;;;;;;;;5016185;28;20439;-64
2021/10/31 10:56:13;;;;;;;3.47;2.27;;;;;;;;;;5016116;28;20438;-64
2021/10/31 10:58:50;;;;;;;4.00;2.10;;;;;;;;;;5016262;28;20392;-64
2021/10/31 11:01:19;;;;;;;3.00;1.87;;;;;;;;;;5016115;28;20384;-65
2021/10/31 11:03:45;;;;;;;2.90;1.60;;;;;;;;;;5016252;28;20419;-63
2021/10/31 11:06:12;;;;;;;3.37;2.03;;;;;;;;;;5015881;28;20404;-64
2021/10/31 11:08:38;;;;;;;3.10;1.87;;;;;;;;;;5016330;28;20470;-64
2021/10/31 11:11:15;;;;;;;4.10;2.70;;;;;;;;;;5016007;28;20414;-64
2021/10/31 11:13:52;;;;;;;3.90;2.03;;;;;;;;;;5015882;28;20803;-64
2021/10/31 11:16:19;;;;;;;2.57;1.90;;;;;;;;;;5015715;28;20450;-63
2021/10/31 11:18:46;;;;;;;3.17;2.00;;;;;;;;;;5015720;28;20904;-63
2021/10/31 11:21:12;;;;;;;3.73;2.00;;;;;;;;;;5015734;28;20427;-64
2021/10/31 11:23:38;;;;;;;3.70;2.17;;;;;;;;;;5015660;28;20422;-63
2021/10/31 11:26:06;;;;;;;4.87;2.37;;;;;;;;;;5015649;28;20431;-64
2021/10/31 11:28:33;;;;;;;4.80;2.43;;;;;;;;;;5015538;28;20888;-64
2021/10/31 11:30:59;;;;;;;3.07;2.10;;;;;;;;;;5015280;28;20407;-64
2021/10/31 11:33:25;;;;;;;2.90;2.20;;;;;;;;;;5015691;28;20407;-64
2021/10/31 11:35:52;;;;;;;2.93;1.83;;;;;;;;;;5015271;28;20478;-64
2021/10/31 11:38:22;;;;;;;4.50;2.50;;;;;;;;;;5015325;28;20404;-64
2021/10/31 11:40:59;;;;;;;2.40;1.70;;;;;;;;;;5015338;28;20868;-64
2021/10/31 11:43:27;;;;;;;3.27;2.33;;;;;;;;;;5015330;28;20444;-64
2021/10/31 11:45:54;;;;;;;3.13;2.30;;;;;;;;;;5015443;28;20435;-64
2021/10/31 11:48:24;;;;;;;3.43;2.50;;;;;;;;;;5015290;28;20403;-64
2021/10/31 11:50:59;;;;;;;3.40;2.50;;;;;;;;;;5015343;28;20410;-64
2021/10/31 11:53:27;;;;;;;2.60;1.90;;;;;;;;;;5015321;28;20962;-66
2021/10/31 11:55:57;;;;;;;3.80;2.30;;;;;;;;;;5015574;28;20474;-64
2021/10/31 11:58:32;;;;;;;4.50;2.33;;;;;;;;;;5015618;28;20777;-64
2021/10/31 12:01:02;;;;;;;3.57;2.23;;;;;;;;;;5014807;28;20387;-64
2021/10/31 12:03:34;;;;;;;2.43;1.87;;;;;;;;;;5014407;28;20400;-64
2021/10/31 12:06:15;;;;;;;3.43;2.10;;;;;;;;;;5014649;28;20408;-64
2021/10/31 12:08:56;;;;;;;3.30;2.00;;;;;;;;;;5015060;28;20475;-64
2021/10/31 12:11:35;;;;;;;3.63;1.90;;;;;;;;;;5014875;28;20458;-64
2021/10/31 12:14:08;;;;;;;4.27;2.13;;;;;;;;;;5014747;28;20473;-64
2021/10/31 12:16:52;;;;;;;4.17;2.10;;;;;;;;;;5014443;28;20464;-64
2021/10/31 12:19:23;;;;;;;2.90;2.20;;;;;;;;;;5014455;28;20392;-64
2021/10/31 12:22:05;;;;;;;3.00;2.40;;;;;;;;;;5014799;28;20419;-64
2021/10/31 12:24:35;;;;;;;3.53;2.40;;;;;;;;;;5013097;28;20419;-64
2021/10/31 12:27:10;;;;;;;3.40;2.37;;;;;;;;;;5014716;28;20934;-64
2021/10/31 12:29:36;;;;;;;3.10;2.13;;;;;;;;;;5014311;28;20387;-64
2021/10/31 12:32:21;;;;;;;4.30;2.40;;;;;;;;;;5014113;28;20415;-64
2021/10/31 12:34:47;;;;;;;3.90;2.33;;;;;;;;;;5014526;28;20419;-64
2021/10/31 12:37:20;;;;;;;2.80;2.30;;;;;;;;;;5014475;28;20475;-64
2021/10/31 12:39:47;;;;;;;2.73;1.93;;;;;;;;;;5014171;28;20458;-64
2021/10/31 12:42:13;;;;;;;6.70;2.77;;;;;;;;;;5014286;28;20815;-64
2021/10/31 12:44:42;;;;;;;4.13;2.10;;;;;;;;;;5014398;28;20419;-64
2021/10/31 12:47:11;;;;;;;2.87;2.17;;;;;;;;;;5013430;28;20876;-64
2021/10/31 12:49:37;;;;;;;3.27;2.10;;;;;;;;;;5014207;28;20404;-64
2021/10/31 12:52:03;;;;;;;3.83;2.33;;;;;;;;;;5014099;28;20403;-64
2021/10/31 12:54:32;;;;;;;2.60;2.23;;;;;;;;;;5013780;28;20486;-64
2021/10/31 12:56:59;;;;;;;3.20;2.20;;;;;;;;;;5013835;28;20453;-64
2021/10/31 12:59:25;;;;;;;2.57;1.80;;;;;;;;;;5014176;28;20400;-64
2021/10/31 13:02:09;;;;;;;3.23;2.20;;;;;;;;;;5013909;28;20403;-64
2021/10/31 13:04:59;;;;;;;4.20;2.30;;;;;;;;;;5013915;28;20419;-64
2021/10/31 13:07:45;;;;;;;5.30;2.80;;;;;;;;;;5008393;28;20507;-64
2021/10/31 13:10:26;;;;;;;3.30;2.30;;;;;;;;;;5013598;28;20439;-64
2021/10/31 13:12:53;;;;;;;4.40;3.10;;;;;;;;;;5013861;28;20760;-64
2021/10/31 13:15:20;;;;;;;2.67;1.97;;;;;;;;;;5013214;28;20434;-64
2021/10/31 13:17:49;;;;;;;3.57;2.23;;;;;;;;;;5013639;28;20442;-64
2021/10/31 13:20:20;;;;;;;3.13;2.40;;;;;;;;;;5013806;28;20803;-64
2021/10/31 13:22:49;;;;;;;3.10;2.23;;;;;;;;;;5014006;28;20486;-64
2021/10/31 13:25:15;;;;;;;3.73;2.30;;;;;;;;;;5013651;28;20422;-64
2021/10/31 13:27:46;;;;;;;3.50;2.60;;;;;;;;;;5014065;28;20493;-64
2021/10/31 13:30:13;;;;;;;3.37;2.17;;;;;;;;;;5013488;28;20454;-64
2021/10/31 13:32:40;;;;;;;3.47;2.20;;;;;;;;;;5013085;28;20470;-64
2021/10/31 13:35:06;;;;;;;2.63;2.27;;;;;;;;;;5013603;28;20427;-64
2021/10/31 13:37:32;;;;;;;4.00;2.00;;;;;;;;;;5013722;28;20828;-64
2021/10/31 13:40:09;;;;;;;3.10;2.17;;;;;;;;;;5013356;28;20454;-64
2021/10/31 13:42:37;;;;;;;2.73;2.20;;;;;;;;;;5013494;28;20754;-65
2021/10/31 13:45:10;;;;;;;2.57;2.07;;;;;;;;;;5013223;28;20820;-65
2021/10/31 13:47:39;;;;;;;3.67;2.00;;;;;;;;;;5013429;28;20384;-66
2021/10/31 13:50:08;;;;;;;3.67;2.40;;;;;;;;;;5012296;28;20491;-64
2021/10/31 13:52:34;;;;;;;2.67;1.77;;;;;;;;;;5013262;28;20478;-64
2021/10/31 13:55:04;;;;;;;3.53;2.10;;;;;;;;;;5012899;28;20439;-64
2021/10/31 13:57:30;;;;;;;3.23;2.30;;;;;;;;;;5013274;28;20439;-64
2021/10/31 13:59:57;;;;;;;4.13;2.10;;;;;;;;;;5013052;28;20919;-64
2021/10/31 14:02:25;;;;;;;3.93;2.23;;;;;;;;;;5012938;28;20399;-64
2021/10/31 14:05:10;;;;;;;3.03;2.47;;;;;;;;;;5013315;28;20419;-64
2021/10/31 14:07:44;;;;;;;4.87;2.67;;;;;;;;;;5013043;28;20403;-64
2021/10/31 14:10:12;;;;;;;3.17;2.40;;;;;;;;;;5013424;28;20467;-64
2021/10/31 14:12:38;;;;;;;2.87;2.23;;;;;;;;;;5012787;28;20399;-64
2021/10/31 14:15:06;;;;;;;3.43;2.20;;;;;;;;;;5013036;28;20418;-62
2021/10/31 14:17:32;;;;;;;3.43;2.50;;;;;;;;;;5013127;28;20889;-62
2021/10/31 14:19:59;;;;;;;4.17;2.60;;;;;;;;;;5013292;28;20891;-62
2021/10/31 14:22:26;;;;;;;2.80;2.00;;;;;;;;;;5013043;28;20400;-62
2021/10/31 14:24:59;;;;;;;3.63;3.00;;;;;;;;;;5013055;28;20419;-62
2021/10/31 14:27:27;;;;;;;3.17;2.30;;;;;;;;;;5016872;28;20435;-62
2021/10/31 14:29:53;;;;;;;3.27;2.20;;;;;;;;;;5016593;28;20402;-62
2021/10/31 14:32:19;;;;;;;7.10;2.67;;;;;;;;;;5016629;28;20915;-63
2021/10/31 14:35:12;;;;;;;3.33;2.07;;;;;;;;;;5016491;28;20442;-62
2021/10/31 14:37:38;;;;;;;3.77;2.50;;;;;;;;;;5013648;28;20462;-62
2021/10/31 14:40:22;;;;;;;3.10;2.30;;;;;;;;;;5016387;28;20486;-64
2021/10/31 14:42:49;;;;;;;3.23;2.57;;;;;;;;;;5016498;28;20880;-63
2021/10/31 14:45:30;;;;;;;3.10;2.20;;;;;;;;;;5016287;28;20509;-63